Terminal Aerodrome Forecast
Issued by NWS Shreveport, LA

Home | Current Version | Previous Version | Text Only | Print | Product List | Glossary On
Versions: 1 2 3 4 5 6 7 8 9 10 11 12 13
000
FTUS44 KSHV 032320
TAFGGG
TAF
KGGG 032320Z 0400/0424 20004KT P6SM VCSH SCT050
     FM040400 19005KT P6SM SCT050 SCT100 BKN250
     FM041200 21007KT P6SM SCT010 BKN100 OVC150
      TEMPO 0413/0416 BKN010
     FM041600 22008KT P6SM VCTS SCT030CB BKN100 OVC150=

USA.gov is the U.S. government's official web portal to all federal, state and local government web resources and services.